Time;durP1;ratioP1;P1;durP2;ratioP2;P2;SDS_P1;SDS_P2;PMS_P1;PMS_P2;Temp;Humidity;BMP_temperature;BMP_pressure;BME280_temperature;BME280_humidity;BME280_pressure;Samples;Min_cycle;Max_cycle;Signal;HPM_P1;HPM_P2
2021/12/08 08:30:39;;;;;;;10.50;3.43;;;5.40;99.90;;;;;;5086823;27;20458;-74
2021/12/08 08:33:05;;;;;;;8.40;3.10;;;5.50;99.90;;;;;;5084663;28;20315;-77
2021/12/08 08:35:40;;;;;;;11.50;3.40;;;5.50;99.90;;;;;;5072341;28;20377;-78
2021/12/08 08:38:10;;;;;;;7.00;2.63;;;5.60;99.90;;;;;;5067866;28;20290;-79
2021/12/08 08:40:41;;;;;;;5.00;2.50;;;5.60;99.90;;;;;;5068187;28;20377;-77
2021/12/08 08:43:10;;;;;;;7.03;2.40;;;5.70;99.90;;;;;;5068068;28;20381;-76
2021/12/08 08:45:44;;;;;;;6.83;3.13;;;5.70;99.90;;;;;;5066916;28;20286;-76
2021/12/08 08:48:16;;;;;;;7.63;2.73;;;5.70;99.90;;;;;;5086298;28;20291;-78
2021/12/08 08:50:54;;;;;;;8.50;2.83;;;5.80;99.90;;;;;;5085554;28;20800;-79
2021/12/08 08:53:22;;;;;;;9.27;2.87;;;5.80;99.90;;;;;;5068241;28;20808;-79
2021/12/08 08:56:14;;;;;;;8.33;2.43;;;5.90;99.90;;;;;;5086329;28;20297;-82
2021/12/08 08:58:45;;;;;;;7.68;2.40;;;5.90;99.90;;;;;;5081261;28;20282;-76
2021/12/08 09:01:16;;;;;;;6.78;2.20;;;6.00;99.90;;;;;;5085226;28;20471;-77
2021/12/08 09:03:46;;;;;;;8.87;2.57;;;6.10;99.90;;;;;;5079832;28;20500;-75
2021/12/08 09:06:23;;;;;;;7.63;2.57;;;6.20;99.90;;;;;;5085321;28;20290;-74
2021/12/08 09:08:49;;;;;;;4.20;2.33;;;6.20;99.90;;;;;;5067945;28;20116;-76
2021/12/08 09:11:28;;;;;;;8.40;1.93;;;6.30;99.90;;;;;;5085873;28;20051;-74
2021/12/08 09:14:05;;;;;;;7.83;2.70;;;6.40;99.90;;;;;;5085428;28;20080;-75
2021/12/08 09:16:41;;;;;;;9.13;2.07;;;6.50;99.90;;;;;;5101226;28;20328;-76
2021/12/08 09:19:13;;;;;;;8.20;2.17;;;6.50;99.90;;;;;;5085014;28;20040;-75
2021/12/08 09:21:57;;;;;;;11.02;2.03;;;6.50;99.90;;;;;;5085136;28;20381;-78
2021/12/08 09:24:33;;;;;;;6.77;2.10;;;6.60;99.90;;;;;;5067480;28;20052;-78
2021/12/08 09:27:00;;;;;;;9.57;2.23;;;6.60;99.90;;;;;;5067221;28;20105;-76
2021/12/08 09:29:41;;;;;;;9.17;2.00;;;6.60;99.90;;;;;;5066371;28;20581;-73
2021/12/08 09:32:19;;;;;;;9.07;2.45;;;6.60;99.90;;;;;;5085109;28;20052;-73
2021/12/08 09:34:58;;;;;;;5.93;1.93;;;6.60;99.90;;;;;;5066694;28;20044;-73
2021/12/08 09:37:28;;;;;;;8.23;2.00;;;6.60;99.90;;;;;;5066831;28;20124;-73
2021/12/08 09:40:12;;;;;;;8.43;2.17;;;6.60;99.90;;;;;;5064948;28;20071;-73
2021/12/08 09:42:46;;;;;;;8.30;1.97;;;6.60;99.90;;;;;;5052824;28;20197;-75
2021/12/08 09:45:20;;;;;;;9.13;2.17;;;6.60;99.90;;;;;;5053858;28;20389;-74
2021/12/08 09:47:46;;;;;;;10.33;2.07;;;6.60;99.90;;;;;;5052529;28;20596;-74
2021/12/08 09:50:14;;;;;;;7.40;2.10;;;6.60;99.90;;;;;;5052570;28;20135;-73
2021/12/08 09:52:43;;;;;;;11.60;2.20;;;6.60;99.90;;;;;;5052930;28;20044;-76
2021/12/08 09:55:12;;;;;;;11.07;2.47;;;6.60;99.90;;;;;;5052349;28;20056;-72
2021/12/08 09:57:38;;;;;;;8.80;2.37;;;6.60;99.90;;;;;;5052724;28;20072;-75
2021/12/08 10:00:10;;;;;;;9.20;1.90;;;6.60;99.90;;;;;;5053168;28;20502;-71
2021/12/08 10:02:37;;;;;;;9.47;2.30;;;6.70;99.90;;;;;;5052419;28;20245;-76
2021/12/08 10:05:12;;;;;;;10.47;4.70;;;6.70;99.90;;;;;;5070979;28;20047;-71
2021/12/08 10:07:39;;;;;;;8.70;2.23;;;6.80;99.90;;;;;;5053135;28;20218;-73
2021/12/08 10:10:07;;;;;;;9.40;2.20;;;6.80;99.90;;;;;;5052326;28;20055;-71
2021/12/08 10:12:34;;;;;;;7.70;1.90;;;6.80;99.90;;;;;;5052579;28;20396;-80
2021/12/08 10:15:02;;;;;;;18.83;17.03;;;6.90;99.90;;;;;;5053007;28;20048;-72
2021/12/08 10:17:28;;;;;;;9.20;2.00;;;6.80;99.90;;;;;;5085381;28;20048;-70
2021/12/08 10:20:20;;;;;;;7.87;2.07;;;6.80;99.90;;;;;;5070908;28;20469;-71
2021/12/08 10:22:49;;;;;;;9.50;2.58;;;6.80;99.90;;;;;;5052082;28;20131;-70
2021/12/08 10:25:20;;;;;;;7.93;1.90;;;6.80;99.90;;;;;;5070698;28;20041;-72
2021/12/08 10:28:12;;;;;;;8.90;2.10;;;6.80;99.90;;;;;;5052484;28;20068;-71
2021/12/08 10:30:47;;;;;;;8.80;2.67;;;6.90;99.90;;;;;;5069832;28;20175;-72
2021/12/08 10:33:55;;;;;;;10.03;2.30;;;7.00;99.90;;;;;;5052778;28;20055;-72
2021/12/08 10:36:46;;;;;;;7.53;2.10;;;7.00;99.90;;;;;;5051551;28;20052;-71
2021/12/08 10:39:25;;;;;;;8.20;2.50;;;7.10;99.90;;;;;;5052688;28;20048;-73
2021/12/08 10:42:18;;;;;;;11.37;2.33;;;7.20;99.90;;;;;;5069764;28;20040;-74
2021/12/08 10:45:00;;;;;;;8.60;2.30;;;7.30;99.90;;;;;;5069836;28;20040;-71
2021/12/08 10:47:31;;;;;;;;;;;7.30;99.10;;;;;;5070286;28;20123;-78
2021/12/08 10:55:33;;;;;;;10.90;2.60;;;7.50;99.30;;;;;;5052146;28;20097;-80
2021/12/08 10:58:03;;;;;;;6.90;1.73;;;7.40;99.20;;;;;;5070121;28;20051;-78
2021/12/08 11:00:33;;;;;;;11.23;2.00;;;7.40;99.10;;;;;;5052364;28;20492;-78
2021/12/08 11:03:01;;;;;;;9.63;2.47;;;7.40;99.00;;;;;;5052384;28;20032;-78
2021/12/08 11:05:37;;;;;;;8.47;2.00;;;7.30;98.60;;;;;;5051111;28;20541;-77
2021/12/08 11:08:14;;;;;;;7.60;2.53;;;7.30;98.80;;;;;;5052360;28;20048;-79
2021/12/08 11:10:45;;;;;;;8.37;2.63;;;7.40;99.10;;;;;;5051472;28;20061;-80
2021/12/08 11:13:12;;;;;;;5.63;2.03;;;7.50;99.00;;;;;;5051938;28;20062;-79
2021/12/08 19:07:20;;;;;;;10.65;4.13;;;4.20;99.90;;;;;;5131194;27;1188220;-80
2021/12/08 19:09:48;;;;;;;8.03;3.57;;;4.20;99.90;;;;;;5128089;27;20047;-74
2021/12/08 19:12:14;;;;;;;7.33;3.53;;;4.20;99.90;;;;;;5147999;27;20083;-74
2021/12/08 19:14:40;;;;;;;8.87;4.17;;;4.20;99.90;;;;;;5147028;27;20292;-76
2021/12/08 19:17:09;;;;;;;7.17;3.73;;;4.20;99.90;;;;;;5127976;27;20116;-76
2021/12/08 19:19:35;;;;;;;8.83;3.77;;;4.20;99.90;;;;;;5128072;27;20333;-75
2021/12/08 19:22:00;;;;;;;7.67;3.47;;;4.30;99.90;;;;;;5147161;27;20372;-73
2021/12/08 19:24:33;;;;;;;9.97;3.83;;;4.30;99.90;;;;;;5148022;27;20042;-83
2021/12/08 19:26:59;;;;;;;7.43;3.77;;;4.40;99.90;;;;;;5129261;27;20371;-78
2021/12/08 19:29:25;;;;;;;7.53;3.97;;;4.40;99.90;;;;;;5128495;27;20287;-79
2021/12/08 19:31:50;;;;;;;7.90;4.73;;;4.40;99.90;;;;;;5146747;27;20194;-84
2021/12/08 19:34:16;;;;;;;8.30;3.93;;;4.50;99.90;;;;;;5147204;27;20074;-77
2021/12/08 19:36:42;;;;;;;8.53;5.10;;;4.50;99.90;;;;;;5128371;27;20383;-74
2021/12/08 19:39:08;;;;;;;9.50;4.00;;;4.50;99.90;;;;;;5128039;27;20047;-73
2021/12/08 19:41:34;;;;;;;7.67;3.93;;;4.60;99.90;;;;;;5146682;27;20375;-73
2021/12/08 19:44:00;;;;;;;11.77;3.93;;;4.60;99.90;;;;;;5128372;27;20372;-72
2021/12/08 19:46:26;;;;;;;9.57;3.30;;;4.60;99.90;;;;;;5127421;27;20039;-74
2021/12/08 19:48:51;;;;;;;10.17;4.50;;;4.70;99.90;;;;;;5147012;27;20088;-78
2021/12/08 19:51:17;;;;;;;12.17;7.03;;;4.70;99.90;;;;;;5128405;27;20096;-70
2021/12/08 19:53:43;;;;;;;11.43;4.27;;;4.70;99.90;;;;;;5145987;27;20046;-78
2021/12/08 19:56:10;;;;;;;11.90;4.27;;;4.70;99.90;;;;;;5128570;27;20047;-75
2021/12/08 19:58:36;;;;;;;8.63;3.83;;;4.80;99.90;;;;;;5128259;27;20281;-83
2021/12/08 20:01:05;;;;;;;7.83;3.57;;;4.80;99.90;;;;;;5127925;27;20337;-76
